createdAt,value
2017-07-01T00:01:08.591Z,1.30
2017-07-01T00:03:36.099Z,1.10
2017-07-01T00:06:04.358Z,1.00
2017-07-01T00:08:32.640Z,1.23
2017-07-01T00:11:00.891Z,1.10
2017-07-01T00:13:28.406Z,1.23
2017-07-01T00:15:55.890Z,1.17
2017-07-01T00:18:23.395Z,1.03
2017-07-01T00:20:51.651Z,0.90
2017-07-01T00:23:19.156Z,1.10
2017-07-01T00:25:46.651Z,0.90
2017-07-01T00:28:14.148Z,1.20
2017-07-01T00:30:42.402Z,1.20
2017-07-01T00:33:09.904Z,1.33
2017-07-01T00:35:37.408Z,1.00
2017-07-01T00:38:04.928Z,0.90
2017-07-01T00:40:32.429Z,1.00
2017-07-01T00:42:59.940Z,1.07
2017-07-01T00:45:27.446Z,1.00
2017-07-01T00:47:54.961Z,1.20
2017-07-01T00:50:22.473Z,1.20
2017-07-01T00:52:50.247Z,0.83
2017-07-01T00:55:17.732Z,1.00
2017-07-01T00:57:46.003Z,1.27
2017-07-01T01:00:14.260Z,1.10
2017-07-01T01:02:41.779Z,1.00
2017-07-01T01:05:09.275Z,1.10
2017-07-01T01:07:36.789Z,1.00
2017-07-01T01:10:04.283Z,1.10
2017-07-01T01:12:31.791Z,1.17
2017-07-01T01:14:59.278Z,1.20
2017-07-01T01:17:26.771Z,1.00
2017-07-01T01:19:54.276Z,1.10
2017-07-01T01:22:21.759Z,0.90
2017-07-01T01:24:49.264Z,0.97
2017-07-01T01:27:16.758Z,0.90
2017-07-01T01:29:44.268Z,0.90
2017-07-01T01:32:11.760Z,0.97
2017-07-01T01:34:39.282Z,1.07
2017-07-01T01:37:06.768Z,1.00
2017-07-01T01:39:34.275Z,1.10
2017-07-01T01:42:01.763Z,1.00
2017-07-01T01:44:29.272Z,1.10
2017-07-01T01:46:56.760Z,1.10
2017-07-01T01:49:24.259Z,1.00
2017-07-01T01:51:52.532Z,1.00
2017-07-01T01:54:20.052Z,0.97
2017-07-01T01:56:47.539Z,1.00
2017-07-01T01:59:15.039Z,1.00
2017-07-01T02:01:42.530Z,0.80
2017-07-01T02:04:10.044Z,0.80
2017-07-01T02:06:38.297Z,1.00
2017-07-01T02:09:05.813Z,1.03
2017-07-01T02:11:33.296Z,0.90
2017-07-01T02:14:01.644Z,0.90
2017-07-01T02:16:29.910Z,0.87
2017-07-01T02:18:57.426Z,0.80
2017-07-01T02:21:27.278Z,1.00
2017-07-01T02:23:54.797Z,0.93
2017-07-01T02:26:24.991Z,1.27
2017-07-01T02:29:02.487Z,0.70
2017-07-01T02:31:29.975Z,0.87
2017-07-01T02:34:00.325Z,0.80
2017-07-01T02:36:31.416Z,0.80
2017-07-01T02:38:58.920Z,1.00
2017-07-01T02:41:26.412Z,0.70
2017-07-01T02:43:53.927Z,0.90
2017-07-01T02:46:39.777Z,0.80
2017-07-01T02:49:16.191Z,0.70
2017-07-01T02:52:05.233Z,0.90
2017-07-01T02:54:34.401Z,0.90
2017-07-01T02:57:01.892Z,0.90
2017-07-01T02:59:45.986Z,0.97
2017-07-01T03:02:13.476Z,0.77
2017-07-01T03:04:40.983Z,0.90
2017-07-01T03:07:08.467Z,0.70
2017-07-01T03:09:39.579Z,0.80
2017-07-01T03:12:07.070Z,0.77
2017-07-01T03:14:34.579Z,0.90
2017-07-01T03:17:02.062Z,0.90
2017-07-01T03:19:30.418Z,1.00
2017-07-01T03:21:57.902Z,0.70
2017-07-01T03:24:26.179Z,0.70
2017-07-01T03:26:54.437Z,0.70
2017-07-01T03:29:23.474Z,0.63
2017-07-01T03:31:50.966Z,0.70
2017-07-01T03:34:18.480Z,0.77
2017-07-01T03:36:47.538Z,0.70
2017-07-01T03:39:36.611Z,0.70
2017-07-01T03:42:41.594Z,0.87
2017-07-01T03:45:21.803Z,0.70
2017-07-01T03:47:53.849Z,0.80
2017-07-01T03:50:21.358Z,0.80
2017-07-01T03:52:49.612Z,0.70
2017-07-01T03:55:17.131Z,0.83
2017-07-01T03:57:46.432Z,0.70
2017-07-01T04:00:13.937Z,0.60
2017-07-01T04:02:41.419Z,0.70
2017-07-01T04:05:08.931Z,0.80
2017-07-01T04:07:36.426Z,0.70
2017-07-01T04:10:03.935Z,0.70
2017-07-01T04:12:31.423Z,0.73
2017-07-01T04:14:58.931Z,0.70
2017-07-01T04:17:26.419Z,0.70
2017-07-01T04:19:54.788Z,0.70
2017-07-01T04:22:23.677Z,0.70
2017-07-01T04:24:51.188Z,0.80
2017-07-01T04:27:19.543Z,0.70
2017-07-01T04:29:47.039Z,0.80
2017-07-01T04:32:15.303Z,0.70
2017-07-01T04:34:42.808Z,0.80
2017-07-01T04:37:10.307Z,0.70
2017-07-01T04:39:37.810Z,0.70
2017-07-01T04:45:16.935Z,0.80
2017-07-01T04:47:47.167Z,0.80
2017-07-01T04:50:16.147Z,0.80
2017-07-01T04:52:45.192Z,1.00
2017-07-01T04:55:18.439Z,0.90
2017-07-01T04:57:50.548Z,0.70
2017-07-01T05:00:33.912Z,0.67
2017-07-01T05:03:01.400Z,0.90
2017-07-01T05:05:36.872Z,0.83
2017-07-01T05:08:22.919Z,0.80
2017-07-01T05:10:52.954Z,0.97
2017-07-01T05:13:20.451Z,1.03
2017-07-01T05:15:51.386Z,0.90
2017-07-01T05:18:18.867Z,0.83
2017-07-01T05:21:01.927Z,0.90
2017-07-01T05:23:31.343Z,1.00
2017-07-01T05:26:00.664Z,1.00
2017-07-01T05:28:28.163Z,0.90
2017-07-01T05:30:58.603Z,0.87
2017-07-01T05:33:32.550Z,0.73
2017-07-01T05:36:18.427Z,0.70
2017-07-01T05:38:51.921Z,0.70
2017-07-01T05:41:22.959Z,0.80
2017-07-01T05:43:52.836Z,0.80
2017-07-01T05:46:20.562Z,0.60
2017-07-01T05:48:54.046Z,0.60
2017-07-01T05:51:21.618Z,0.60
2017-07-01T05:53:49.904Z,0.70
2017-07-01T05:56:18.151Z,0.60
2017-07-01T05:58:45.924Z,0.80
2017-07-01T06:01:13.447Z,0.90
2017-07-01T06:03:40.962Z,0.70
2017-07-01T06:06:09.211Z,0.70
2017-07-01T06:08:36.779Z,0.70
2017-07-01T06:11:06.067Z,0.80
2017-07-01T06:13:55.321Z,0.80
2017-07-01T06:16:38.468Z,0.80
2017-07-01T06:19:15.470Z,0.70
2017-07-01T06:21:42.975Z,0.70
2017-07-01T06:24:23.139Z,0.70
2017-07-01T06:27:09.307Z,0.60
2017-07-01T06:29:48.568Z,0.90
2017-07-01T06:32:36.564Z,0.70
2017-07-01T06:35:29.476Z,0.63
2017-07-01T06:38:30.498Z,0.70
2017-07-01T06:41:18.783Z,0.70
2017-07-01T06:43:57.963Z,0.70
2017-07-01T06:46:25.448Z,0.70
2017-07-01T06:48:55.635Z,0.73
2017-07-01T06:51:23.159Z,0.80
2017-07-01T06:54:04.059Z,0.80
2017-07-01T06:56:32.330Z,0.90
2017-07-01T06:59:00.579Z,0.90
2017-07-01T07:01:28.083Z,0.87
2017-07-01T07:03:56.330Z,1.00
2017-07-01T07:06:23.852Z,0.90
2017-07-01T07:08:51.346Z,0.90
2017-07-01T07:11:18.847Z,0.90
2017-07-01T07:13:46.514Z,0.70
2017-07-01T07:16:14.035Z,0.90
2017-07-01T07:18:41.528Z,0.80
2017-07-01T07:21:09.270Z,0.80
2017-07-01T07:23:36.784Z,0.83
2017-07-01T07:26:04.287Z,0.80
2017-07-01T07:28:32.539Z,0.90
2017-07-01T07:31:00.047Z,0.80
2017-07-01T07:33:27.543Z,0.80
2017-07-01T07:35:55.053Z,0.80
2017-07-01T07:38:23.311Z,0.97
2017-07-01T07:40:51.615Z,0.90
2017-07-01T07:43:19.104Z,0.80
2017-07-01T07:45:46.608Z,0.80
2017-07-01T07:48:14.091Z,1.00
2017-07-01T07:50:41.591Z,0.80
2017-07-01T07:53:09.074Z,0.70
2017-07-01T07:55:36.582Z,0.90
2017-07-01T07:58:04.067Z,0.90
2017-07-01T08:00:31.600Z,0.77
2017-07-01T08:02:59.088Z,0.80
2017-07-01T08:05:26.611Z,1.27
2017-07-01T08:07:54.094Z,0.93
2017-07-01T08:10:21.644Z,0.80
2017-07-01T08:12:49.142Z,0.80
2017-07-01T08:15:16.651Z,0.90
2017-07-01T08:17:44.142Z,0.90
2017-07-01T08:20:11.651Z,0.90
2017-07-01T08:22:39.907Z,0.90
2017-07-01T08:25:07.403Z,0.90
2017-07-01T08:27:34.883Z,0.80
2017-07-01T08:30:02.387Z,1.00
2017-07-01T08:32:29.880Z,1.00
2017-07-01T08:34:57.384Z,0.80
2017-07-01T08:37:24.871Z,0.93
2017-07-01T08:39:52.376Z,1.10
2017-07-01T08:42:19.859Z,0.90
2017-07-01T08:44:47.360Z,1.00
2017-07-01T08:47:15.615Z,0.90
2017-07-01T08:49:43.114Z,0.90
2017-07-01T08:52:10.591Z,0.90
2017-07-01T08:54:38.095Z,1.00
2017-07-01T08:57:05.588Z,1.00
2017-07-01T08:59:33.094Z,0.80
2017-07-01T09:02:00.583Z,0.90
2017-07-01T09:04:28.092Z,0.90
2017-07-01T09:06:55.591Z,0.97
2017-07-01T09:09:23.108Z,0.80
2017-07-01T09:11:50.592Z,0.90
2017-07-01T09:14:18.105Z,1.00
2017-07-01T09:16:45.629Z,0.80
2017-07-01T09:19:13.142Z,1.00
2017-07-01T09:21:40.625Z,0.90
2017-07-01T09:24:10.092Z,1.20
2017-07-01T09:26:37.583Z,1.70
2017-07-01T09:29:05.083Z,0.90
2017-07-01T09:31:33.339Z,1.00
2017-07-01T09:34:00.845Z,0.90
2017-07-01T09:36:28.550Z,0.93
2017-07-01T09:38:56.047Z,1.20
2017-07-01T09:41:24.312Z,1.00
2017-07-01T09:43:52.591Z,1.10
2017-07-01T09:46:20.848Z,0.93
2017-07-01T09:48:48.352Z,0.80
2017-07-01T09:51:15.838Z,0.90
2017-07-01T09:53:43.347Z,1.00
2017-07-01T09:56:10.831Z,0.97
2017-07-01T09:58:38.335Z,0.90
2017-07-01T10:01:05.822Z,0.93
2017-07-01T10:03:33.334Z,0.83
2017-07-01T10:06:00.830Z,0.90
2017-07-01T10:08:28.334Z,1.17
2017-07-01T10:10:55.815Z,1.10
2017-07-01T10:13:23.318Z,1.00
2017-07-01T10:15:50.803Z,1.10
2017-07-01T10:18:18.315Z,1.20
2017-07-01T10:20:45.803Z,1.60
2017-07-01T10:23:14.084Z,1.17
2017-07-01T10:25:41.580Z,0.97
2017-07-01T10:28:09.112Z,0.80
2017-07-01T10:30:36.600Z,1.10
2017-07-01T10:33:04.108Z,0.90
2017-07-01T10:35:31.597Z,1.10
2017-07-01T10:37:59.117Z,1.00
2017-07-01T10:40:26.618Z,1.00
2017-07-01T10:42:54.119Z,1.00
2017-07-01T10:45:21.629Z,0.90
2017-07-01T10:47:49.126Z,1.00
2017-07-01T10:50:16.620Z,1.10
2017-07-01T10:52:44.123Z,1.07
2017-07-01T10:55:12.654Z,0.90
2017-07-01T10:57:40.135Z,0.90
2017-07-01T11:00:07.650Z,1.00
2017-07-01T11:02:35.139Z,1.27
2017-07-01T11:05:02.652Z,1.30
2017-07-01T11:07:30.151Z,1.10
2017-07-01T11:09:57.652Z,0.87
2017-07-01T11:12:25.131Z,1.00
2017-07-01T11:14:52.645Z,0.90
2017-07-01T11:17:20.896Z,1.07
2017-07-01T11:19:48.451Z,1.20
2017-07-01T11:22:15.942Z,1.10
2017-07-01T11:24:43.447Z,1.10
2017-07-01T11:27:10.935Z,1.13
2017-07-01T11:29:38.447Z,1.10
2017-07-01T11:32:05.926Z,1.20
2017-07-01T11:34:33.459Z,1.10
2017-07-01T11:37:00.991Z,1.03
2017-07-01T11:39:29.666Z,0.90
2017-07-01T11:41:57.952Z,0.90
2017-07-01T11:44:25.461Z,1.20
2017-07-01T11:46:52.947Z,1.03
2017-07-01T11:49:20.455Z,0.97
2017-07-01T11:51:47.955Z,1.17
2017-07-01T11:54:15.462Z,1.30
2017-07-01T11:56:43.717Z,1.10
2017-07-01T11:59:11.223Z,1.00
2017-07-01T12:01:38.722Z,1.17
2017-07-01T12:04:06.239Z,1.07
2017-07-01T12:06:33.725Z,1.10
2017-07-01T12:09:01.230Z,1.00
2017-07-01T12:11:29.646Z,1.13
2017-07-01T12:13:57.164Z,0.90
2017-07-01T12:16:24.649Z,1.00
2017-07-01T12:18:52.154Z,1.20
2017-07-01T12:21:19.635Z,0.90
2017-07-01T12:23:47.139Z,0.80
2017-07-01T12:26:15.547Z,1.00
2017-07-01T12:28:43.225Z,0.93
2017-07-01T12:31:10.731Z,1.00
2017-07-01T12:33:38.243Z,1.10
2017-07-01T12:36:05.734Z,0.97
2017-07-01T12:38:34.005Z,1.00
2017-07-01T12:41:02.260Z,1.10
2017-07-01T12:43:29.767Z,1.07
2017-07-01T12:45:57.247Z,0.83
2017-07-01T12:48:24.755Z,1.00
2017-07-01T12:50:53.015Z,1.00
2017-07-01T12:53:20.515Z,1.03
2017-07-01T12:55:47.998Z,1.13
2017-07-01T12:58:15.498Z,0.90
2017-07-01T13:00:42.983Z,1.07
2017-07-01T13:03:11.258Z,1.00
2017-07-01T13:05:39.516Z,0.90
2017-07-01T13:08:07.022Z,0.83
2017-07-01T13:10:34.503Z,0.90
2017-07-01T13:13:02.000Z,0.90
2017-07-01T13:15:29.480Z,0.93
2017-07-01T13:17:56.983Z,1.00
2017-07-01T13:20:24.463Z,0.83
2017-07-01T13:22:51.975Z,1.13
2017-07-01T13:25:19.460Z,1.00
2017-07-01T13:27:46.967Z,0.97
2017-07-01T13:30:14.468Z,1.07
2017-07-01T13:32:41.967Z,1.00
2017-07-01T13:35:09.460Z,0.77
2017-07-01T13:37:36.983Z,0.90
2017-07-01T13:40:06.176Z,1.03
2017-07-01T13:42:34.473Z,1.10
2017-07-01T13:45:02.724Z,0.80
2017-07-01T13:47:30.447Z,1.10
2017-07-01T13:49:57.940Z,1.10
2017-07-01T13:52:25.443Z,1.07
2017-07-01T13:54:53.696Z,0.80
2017-07-01T13:57:21.201Z,0.70
2017-07-01T13:59:48.686Z,0.90
2017-07-01T14:02:16.184Z,0.90
2017-07-01T14:04:44.445Z,0.90
2017-07-01T14:07:12.017Z,0.80
2017-07-01T14:09:39.483Z,0.90
2017-07-01T14:12:06.994Z,0.90
2017-07-01T14:14:34.484Z,1.00
2017-07-01T14:17:01.987Z,1.10
2017-07-01T14:19:29.467Z,1.00
2017-07-01T14:21:56.972Z,0.97
2017-07-01T14:24:25.224Z,0.90
2017-07-01T14:26:52.731Z,0.90
2017-07-01T14:29:20.211Z,0.90
2017-07-01T14:31:47.718Z,0.90
2017-07-01T14:34:15.202Z,0.80
2017-07-01T14:36:43.475Z,0.90
2017-07-01T14:39:12.444Z,0.90
2017-07-01T14:41:39.947Z,0.87
2017-07-01T14:44:10.767Z,1.10
2017-07-01T14:46:38.283Z,0.97
2017-07-01T14:49:05.767Z,0.90
2017-07-01T14:51:33.270Z,0.87
2017-07-01T14:54:02.891Z,1.00
2017-07-01T14:56:30.398Z,1.00
2017-07-01T14:58:57.881Z,0.90
2017-07-01T15:01:26.961Z,1.00
2017-07-01T15:03:54.467Z,1.00
2017-07-01T15:06:21.964Z,1.10
2017-07-01T15:08:49.628Z,0.93
2017-07-01T15:11:17.134Z,1.00
2017-07-01T15:13:44.620Z,0.90
2017-07-01T15:16:12.392Z,1.00
2017-07-01T15:18:39.880Z,1.10
2017-07-01T15:21:08.158Z,1.10
2017-07-01T15:23:36.412Z,1.00
2017-07-01T15:26:06.524Z,1.03
2017-07-01T15:28:34.647Z,1.00
2017-07-01T15:31:03.505Z,0.90
2017-07-01T15:33:30.998Z,1.00
2017-07-01T15:35:58.506Z,1.10
2017-07-01T15:38:26.210Z,1.00
2017-07-01T15:43:28.372Z,1.00
2017-07-01T15:45:58.398Z,0.90
2017-07-01T15:48:25.884Z,0.93
2017-07-01T15:50:53.391Z,0.80
2017-07-01T15:53:20.871Z,0.90
2017-07-01T15:55:48.382Z,1.10
2017-07-01T15:58:17.116Z,1.00
2017-07-01T16:00:56.323Z,0.90
2017-07-01T16:03:23.808Z,0.87
2017-07-01T16:05:51.323Z,0.90
2017-07-01T16:08:18.815Z,0.93
2017-07-01T16:10:46.333Z,0.90
2017-07-01T16:13:14.334Z,0.80
2017-07-01T16:15:41.835Z,1.00
2017-07-01T16:18:10.088Z,1.00
2017-07-01T16:20:37.581Z,1.83
2017-07-01T16:23:05.153Z,0.90
2017-07-01T16:25:32.646Z,1.00
2017-07-01T16:28:00.158Z,0.90
2017-07-01T16:30:28.405Z,1.00
2017-07-01T16:32:56.696Z,1.13
2017-07-01T16:35:24.951Z,0.90
2017-07-01T16:37:52.799Z,1.10
2017-07-01T16:40:20.596Z,1.03
2017-07-01T16:42:48.895Z,1.07
2017-07-01T16:45:17.168Z,1.00
2017-07-01T16:47:45.471Z,0.97
2017-07-01T16:50:13.020Z,1.13
2017-07-01T16:52:40.809Z,1.00
2017-07-01T16:55:08.397Z,1.00
2017-07-01T16:57:36.969Z,0.80
2017-07-01T17:00:04.587Z,1.07
2017-07-01T17:02:32.156Z,0.90
2017-07-01T17:05:00.442Z,1.00
2017-07-01T17:07:27.952Z,0.90
2017-07-01T17:09:55.433Z,1.00
2017-07-01T17:12:22.951Z,1.03
2017-07-01T17:14:51.187Z,0.80
2017-07-01T17:17:18.710Z,0.97
2017-07-01T17:19:46.235Z,1.20
2017-07-01T17:22:13.767Z,1.10
2017-07-01T17:24:42.192Z,0.97
2017-07-01T17:27:09.742Z,1.00
2017-07-01T17:29:37.579Z,0.97
2017-07-01T17:32:05.135Z,0.93
2017-07-01T17:34:33.705Z,1.03
2017-07-01T17:37:01.260Z,1.20
2017-07-01T17:39:28.796Z,0.90
2017-07-01T17:41:56.467Z,0.90
2017-07-01T17:44:23.957Z,1.00
2017-07-01T17:46:51.493Z,1.07
2017-07-01T17:49:21.426Z,1.30
2017-07-01T17:51:48.935Z,1.07
2017-07-01T17:54:19.340Z,0.97
2017-07-01T17:56:47.071Z,1.30
2017-07-01T17:59:15.335Z,1.40
2017-07-01T18:01:42.849Z,1.10
2017-07-01T18:04:10.342Z,1.37
2017-07-01T18:06:37.842Z,1.10
2017-07-01T18:09:05.326Z,1.00
2017-07-01T18:11:33.047Z,1.10
2017-07-01T18:14:01.299Z,0.90
2017-07-01T18:16:28.806Z,1.33
2017-07-01T18:18:56.289Z,1.10
2017-07-01T18:21:25.505Z,1.00
2017-07-01T18:23:52.995Z,1.10
2017-07-01T18:26:20.555Z,1.10
2017-07-01T18:28:48.140Z,1.60
2017-07-01T18:31:15.652Z,1.13
2017-07-01T18:33:43.140Z,1.17
2017-07-01T18:36:11.408Z,1.30
2017-07-01T18:38:38.895Z,1.23
2017-07-01T18:41:06.410Z,1.00
2017-07-01T18:43:33.905Z,1.17
2017-07-01T18:46:01.416Z,1.17
2017-07-01T18:48:28.902Z,1.10
2017-07-01T18:50:56.402Z,1.60
2017-07-01T18:53:23.896Z,1.00
2017-07-01T18:55:51.407Z,1.20
2017-07-01T18:58:19.742Z,1.50
2017-07-01T19:00:47.243Z,1.27
2017-07-01T19:03:14.728Z,1.00
2017-07-01T19:05:42.231Z,1.20
2017-07-01T19:08:09.720Z,1.20
2017-07-01T19:10:37.226Z,1.10
2017-07-01T19:13:04.713Z,1.20
2017-07-01T19:15:32.216Z,1.03
2017-07-01T19:17:59.703Z,1.10
2017-07-01T19:20:27.210Z,1.40
2017-07-01T19:22:55.464Z,1.30
2017-07-01T19:25:22.969Z,1.30
2017-07-01T19:27:50.452Z,1.10
2017-07-01T19:30:17.961Z,1.30
2017-07-01T19:32:46.215Z,1.40
2017-07-01T19:35:13.714Z,1.10
2017-07-01T19:37:41.204Z,1.30
2017-07-01T19:40:08.722Z,1.10
2017-07-01T19:42:36.215Z,1.00
2017-07-01T19:45:03.718Z,1.03
2017-07-01T19:47:31.984Z,1.20
2017-07-01T19:49:59.604Z,1.40
2017-07-01T19:52:27.086Z,1.20
2017-07-01T19:54:54.587Z,1.27
2017-07-01T19:57:22.071Z,1.40
2017-07-01T19:59:49.580Z,1.20
2017-07-01T20:02:17.056Z,1.40
2017-07-01T20:04:44.564Z,1.10
2017-07-01T20:07:12.051Z,1.27
2017-07-01T20:09:39.547Z,1.40
2017-07-01T20:12:07.799Z,1.43
2017-07-01T20:14:35.332Z,1.40
2017-07-01T20:17:02.823Z,1.20
2017-07-01T20:19:30.328Z,1.50
2017-07-01T20:21:57.853Z,1.30
2017-07-01T20:24:25.359Z,1.10
2017-07-01T20:26:52.852Z,1.30
2017-07-01T20:29:20.356Z,1.30
2017-07-01T20:31:47.843Z,1.30
2017-07-01T20:34:15.348Z,1.30
2017-07-01T20:36:43.604Z,1.37
2017-07-01T20:39:11.105Z,1.17
2017-07-01T20:41:38.599Z,1.53
2017-07-01T20:44:06.095Z,1.27
2017-07-01T20:46:33.595Z,1.20
2017-07-01T20:49:01.095Z,1.37
2017-07-01T20:51:28.588Z,1.47
2017-07-01T20:53:56.080Z,1.57
2017-07-01T20:56:23.619Z,1.87
2017-07-01T20:58:51.104Z,1.60
2017-07-01T21:01:18.610Z,1.50
2017-07-01T21:03:46.863Z,1.47
2017-07-01T21:06:14.412Z,1.40
2017-07-01T21:08:41.895Z,1.20
2017-07-01T21:11:09.405Z,1.23
2017-07-01T21:13:36.904Z,1.60
2017-07-01T21:16:04.420Z,1.23
2017-07-01T21:18:31.923Z,1.40
2017-07-01T21:20:59.486Z,1.50
2017-07-01T21:23:26.965Z,1.40
2017-07-01T21:25:55.749Z,1.40
2017-07-01T21:28:23.239Z,1.50
2017-07-01T21:30:50.748Z,1.60
2017-07-01T21:33:18.232Z,1.80
2017-07-01T21:35:46.507Z,1.60
2017-07-01T21:38:13.991Z,1.70
2017-07-01T21:40:41.492Z,1.70
2017-07-01T21:43:08.979Z,1.83
2017-07-01T21:45:36.491Z,1.60
2017-07-01T21:48:03.978Z,1.50
2017-07-01T21:50:31.483Z,1.47
2017-07-01T21:52:58.988Z,1.57
2017-07-01T21:55:26.509Z,1.60
2017-07-01T21:57:53.991Z,1.47
2017-07-01T22:00:21.494Z,1.57
2017-07-01T22:02:48.974Z,1.43
2017-07-01T22:05:16.471Z,1.80
2017-07-01T22:07:44.011Z,1.63
2017-07-01T22:10:11.520Z,1.70
2017-07-01T22:12:39.015Z,1.63
2017-07-01T22:15:06.527Z,1.27
2017-07-01T22:17:34.016Z,1.53
2017-07-01T22:20:01.523Z,1.40
2017-07-01T22:22:29.023Z,1.97
2017-07-01T22:24:56.703Z,1.63
2017-07-01T22:27:24.967Z,1.60
2017-07-01T22:29:52.471Z,1.60
2017-07-01T22:32:19.964Z,1.40
2017-07-01T22:34:47.481Z,1.50
2017-07-01T22:37:14.967Z,1.50
2017-07-01T22:39:42.479Z,1.50
2017-07-01T22:42:09.965Z,1.33
2017-07-01T22:44:37.468Z,1.40
2017-07-01T22:47:04.955Z,1.20
2017-07-01T22:49:33.227Z,1.20
2017-07-01T22:52:01.495Z,1.50
2017-07-01T22:54:29.763Z,1.10
2017-07-01T22:56:57.252Z,1.27
2017-07-01T22:59:24.975Z,1.27
2017-07-01T23:01:52.887Z,1.20
2017-07-01T23:04:20.389Z,1.20
2017-07-01T23:06:47.883Z,1.20
2017-07-01T23:09:16.164Z,1.50
2017-07-01T23:11:44.423Z,1.20
2017-07-01T23:14:11.929Z,1.40
2017-07-01T23:16:39.420Z,1.73
2017-07-01T23:19:06.930Z,1.40
2017-07-01T23:21:35.183Z,1.30
2017-07-01T23:24:02.694Z,1.10
2017-07-01T23:26:30.188Z,1.10
2017-07-01T23:28:57.704Z,1.10
2017-07-01T23:31:25.188Z,1.10
2017-07-01T23:33:52.700Z,1.43
2017-07-01T23:36:20.191Z,1.40
2017-07-01T23:38:47.706Z,1.30
2017-07-01T23:41:15.965Z,1.10
2017-07-01T23:43:43.708Z,1.03
2017-07-01T23:46:11.195Z,1.23
2017-07-01T23:48:38.695Z,1.10
2017-07-01T23:51:06.183Z,1.10
2017-07-01T23:53:33.691Z,1.30
2017-07-01T23:56:01.956Z,1.10
2017-07-01T23:58:29.463Z,1.17
